Lemont, Illinois
Current Conditions -  °F | °C
As of 4:55 AM on Friday 28 Nov 2014 (Local Time) from KLOT Reporting Station
Overcast Overcast  
Wind Chill: 19°   Ceiling: 7000
Heat Index: 19°   Visibility: 10mi
Dew Point: 13°   Wind: 0mph
Humidity: 78%   Direction: NA
Pressure: 30.32"   Gusts: NA
Location:  41.67°N, 88°W
Report Text: KLOT 281055Z AUTO 00000KT 10SM OVC070 M07/M11 A3032 RMK AO2 T10751107
Loading
Personal Weather Stations






























Interactive Weather Map New forecast layout! Learn more

10-Day Weather Forecast

Advertisements
Track Severe Weather on mobile